createdAt,value
2023-03-01T00:01:22.707Z,32.53
2023-03-01T00:03:52.967Z,27.27
2023-03-01T00:06:21.934Z,29.63
2023-03-01T00:08:50.472Z,25.30
2023-03-01T00:11:21.340Z,26.77
2023-03-01T00:13:51.561Z,27.75
2023-03-01T00:16:22.419Z,31.70
2023-03-01T00:18:52.604Z,26.58
2023-03-01T00:21:22.382Z,28.10
2023-03-01T00:23:50.812Z,31.33
2023-03-01T00:26:21.629Z,28.02
2023-03-01T00:28:49.615Z,33.35
2023-03-01T00:31:19.301Z,29.17
2023-03-01T00:33:47.909Z,28.05
2023-03-01T00:36:18.096Z,27.52
2023-03-01T00:38:47.486Z,36.78
2023-03-01T00:41:17.397Z,28.83
2023-03-01T00:43:46.438Z,29.70
2023-03-01T00:46:16.143Z,34.80
2023-03-01T00:48:45.506Z,29.33
2023-03-01T00:51:16.703Z,31.63
2023-03-01T00:53:46.718Z,35.53
2023-03-01T00:56:16.333Z,42.58
2023-03-01T00:58:45.931Z,30.17
2023-03-01T01:01:19.073Z,33.92
2023-03-01T01:03:48.801Z,55.10
2023-03-01T01:06:18.801Z,42.92
2023-03-01T01:08:48.249Z,31.52
2023-03-01T01:11:17.570Z,62.90
2023-03-01T01:13:47.521Z,47.42
2023-03-01T01:16:16.938Z,43.67
2023-03-01T01:18:45.620Z,33.13
2023-03-01T01:21:15.730Z,32.50
2023-03-01T01:23:45.010Z,30.92
2023-03-01T01:26:17.149Z,35.67
2023-03-01T01:28:45.038Z,28.70
2023-03-01T01:31:15.651Z,30.13
2023-03-01T01:33:44.358Z,31.58
2023-03-01T01:36:13.276Z,31.25
2023-03-01T01:38:43.424Z,31.48
2023-03-01T01:41:13.471Z,31.20
2023-03-01T01:43:47.216Z,34.05
2023-03-01T01:46:23.649Z,32.03
2023-03-01T01:48:56.800Z,32.55
2023-03-01T01:51:29.784Z,35.20
2023-03-01T01:54:01.753Z,28.08
2023-03-01T01:56:32.315Z,30.50
2023-03-01T01:59:03.433Z,36.78
2023-03-01T02:01:31.585Z,28.52
2023-03-01T02:04:00.758Z,30.20
2023-03-01T02:06:33.437Z,31.88
2023-03-01T02:09:06.783Z,29.08
2023-03-01T02:11:38.579Z,31.75
2023-03-01T02:14:08.319Z,29.30
2023-03-01T02:16:38.593Z,33.45
2023-03-01T02:19:07.760Z,27.40
2023-03-01T02:21:43.901Z,28.70
2023-03-01T02:24:24.070Z,30.42
2023-03-01T02:26:56.604Z,31.05
2023-03-01T02:29:27.145Z,30.42
2023-03-01T02:31:58.755Z,28.92
2023-03-01T02:34:30.015Z,30.33
2023-03-01T02:37:02.136Z,27.70
2023-03-01T02:39:36.306Z,30.02
2023-03-01T02:42:06.145Z,30.40
2023-03-01T02:44:35.379Z,31.58
2023-03-01T02:47:05.390Z,41.67
2023-03-01T02:49:35.579Z,35.05
2023-03-01T02:52:41.089Z,33.80
2023-03-01T02:55:12.855Z,33.17
2023-03-01T02:57:44.128Z,30.88
2023-03-01T03:00:20.476Z,39.80
2023-03-01T03:02:50.059Z,32.95
2023-03-01T03:05:33.990Z,45.25
2023-03-01T03:08:04.223Z,48.15
2023-03-01T03:10:41.119Z,45.65
2023-03-01T03:13:12.213Z,31.50
2023-03-01T03:15:42.924Z,31.40
2023-03-01T03:18:13.878Z,47.70
2023-03-01T03:20:43.354Z,40.70
2023-03-01T03:23:11.790Z,29.27
2023-03-01T03:25:40.047Z,33.25
2023-03-01T03:28:11.506Z,28.35
2023-03-01T03:30:42.451Z,28.10
2023-03-01T03:33:13.444Z,33.72
2023-03-01T03:35:44.176Z,38.08
2023-03-01T03:38:17.730Z,35.85
2023-03-01T03:40:47.982Z,29.95
2023-03-01T03:43:17.995Z,34.38
2023-03-01T03:45:48.357Z,28.95
2023-03-01T03:48:18.352Z,35.80
2023-03-01T03:50:51.388Z,31.58
2023-03-01T03:53:20.622Z,31.20
2023-03-01T03:55:50.699Z,32.78
2023-03-01T03:58:20.622Z,30.67
2023-03-01T04:00:52.037Z,32.58
2023-03-01T04:03:22.020Z,30.45
2023-03-01T04:06:06.252Z,32.55
2023-03-01T04:08:34.790Z,35.55
2023-03-01T04:11:25.381Z,29.67
2023-03-01T04:13:54.934Z,38.70
2023-03-01T04:16:24.693Z,46.45
2023-03-01T04:18:53.188Z,43.33
2023-03-01T04:21:21.649Z,38.40
2023-03-01T04:23:49.532Z,36.90
2023-03-01T04:26:17.637Z,37.17
2023-03-01T04:28:46.716Z,45.65
2023-03-01T04:31:19.351Z,45.28
2023-03-01T04:33:52.307Z,40.85
2023-03-01T04:36:22.012Z,35.80
2023-03-01T04:38:50.562Z,33.80
2023-03-01T04:41:20.363Z,35.25
2023-03-01T04:43:49.531Z,30.55
2023-03-01T04:46:20.556Z,30.55
2023-03-01T04:48:50.127Z,28.27
2023-03-01T04:51:19.325Z,29.17
2023-03-01T04:53:47.474Z,33.47
2023-03-01T04:56:16.252Z,34.85
2023-03-01T04:58:44.380Z,33.67
2023-03-01T05:01:16.370Z,35.50
2023-03-01T05:03:45.566Z,33.15
2023-03-01T05:06:15.398Z,28.42
2023-03-01T05:08:44.143Z,31.05
2023-03-01T05:11:12.953Z,32.67
2023-03-01T05:13:41.903Z,32.20
2023-03-01T05:16:12.386Z,30.02
2023-03-01T05:18:59.050Z,36.15
2023-03-01T05:21:28.366Z,31.02
2023-03-01T05:23:56.869Z,30.50
2023-03-01T05:26:29.603Z,31.92
2023-03-01T05:28:59.684Z,29.33
2023-03-01T05:31:28.223Z,33.05
2023-03-01T05:33:56.135Z,34.75
2023-03-01T05:36:24.048Z,29.55
2023-03-01T05:38:59.124Z,37.17
2023-03-01T05:41:26.980Z,30.00
2023-03-01T05:43:55.032Z,30.48
2023-03-01T05:46:25.340Z,32.15
2023-03-01T05:48:53.610Z,46.83
2023-03-01T05:51:23.210Z,39.88
2023-03-01T05:53:51.073Z,37.20
2023-03-01T05:56:20.280Z,38.85
2023-03-01T05:58:50.292Z,35.13
2023-03-01T06:01:18.324Z,35.03
2023-03-01T06:03:46.316Z,35.90
2023-03-01T06:06:14.268Z,35.95
2023-03-01T06:08:42.187Z,37.30
2023-03-01T06:11:10.150Z,29.65
2023-03-01T06:13:39.374Z,34.42
2023-03-01T06:16:08.552Z,49.78
2023-03-01T06:18:39.437Z,41.80
2023-03-01T06:21:09.813Z,39.78
2023-03-01T06:23:38.033Z,48.03
2023-03-01T06:26:13.384Z,31.80
2023-03-01T06:28:42.829Z,31.70
2023-03-01T06:31:11.874Z,34.95
2023-03-01T06:33:39.968Z,36.38
2023-03-01T06:36:09.088Z,30.58
2023-03-01T06:38:37.111Z,32.30
2023-03-01T06:41:05.239Z,36.08
2023-03-01T06:43:33.341Z,41.20
2023-03-01T06:46:05.825Z,37.67
2023-03-01T06:48:33.830Z,44.85
2023-03-01T06:51:03.455Z,41.85
2023-03-01T06:53:31.960Z,47.65
2023-03-01T06:56:00.983Z,49.00
2023-03-01T06:58:29.027Z,63.92
2023-03-01T07:00:56.882Z,51.25
2023-03-01T07:03:26.422Z,41.45
2023-03-01T07:05:54.361Z,36.13
2023-03-01T07:08:22.658Z,35.30
2023-03-01T07:10:52.615Z,41.75
2023-03-01T07:13:20.638Z,35.92
2023-03-01T07:15:48.572Z,38.75
2023-03-01T07:18:16.769Z,28.25
2023-03-01T07:20:45.972Z,34.53
2023-03-01T07:23:13.809Z,33.28
2023-03-01T07:25:41.694Z,32.55
2023-03-01T07:28:09.575Z,33.55
2023-03-01T07:30:37.412Z,36.83
2023-03-01T07:33:05.518Z,30.63
2023-03-01T07:35:34.659Z,34.92
2023-03-01T07:38:03.983Z,32.47
2023-03-01T07:40:31.843Z,31.70
2023-03-01T07:43:00.134Z,35.72
2023-03-01T07:45:28.210Z,31.33
2023-03-01T07:47:56.731Z,33.95
2023-03-01T07:50:25.132Z,32.92
2023-03-01T07:52:54.076Z,36.75
2023-03-01T07:55:23.379Z,35.67
2023-03-01T07:57:51.246Z,39.03
2023-03-01T08:00:20.034Z,35.67
2023-03-01T08:02:47.973Z,37.00
2023-03-01T08:05:15.993Z,39.13
2023-03-01T08:07:43.922Z,29.55
2023-03-01T08:10:13.111Z,35.55
2023-03-01T08:12:42.418Z,31.27
2023-03-01T08:15:11.383Z,36.80
2023-03-01T08:17:41.388Z,32.90
2023-03-01T08:20:13.332Z,30.75
2023-03-01T08:22:41.322Z,30.10
2023-03-01T08:25:09.930Z,30.50
2023-03-01T08:27:37.764Z,36.47
2023-03-01T08:30:08.872Z,30.67
2023-03-01T08:32:41.017Z,32.70
2023-03-01T08:35:09.768Z,31.58
2023-03-01T08:37:37.755Z,33.78
2023-03-01T08:40:08.150Z,31.45
2023-03-01T08:42:36.030Z,31.35
2023-03-01T08:45:04.049Z,32.78
2023-03-01T08:47:34.464Z,31.25
2023-03-01T08:50:02.352Z,30.95
2023-03-01T08:52:31.091Z,40.00
2023-03-01T08:54:58.990Z,36.03
2023-03-01T08:57:27.090Z,32.42
2023-03-01T09:00:18.411Z,32.95
2023-03-01T09:02:47.577Z,33.15
2023-03-01T09:05:15.772Z,32.17
2023-03-01T09:07:43.603Z,33.20
2023-03-01T09:10:12.897Z,35.65
2023-03-01T09:12:40.785Z,32.60
2023-03-01T09:15:09.988Z,29.88
2023-03-01T09:17:38.090Z,38.65
2023-03-01T09:20:08.356Z,36.70
2023-03-01T09:22:36.595Z,35.45
2023-03-01T09:25:04.800Z,36.05
2023-03-01T09:27:32.634Z,37.50
2023-03-01T09:30:21.937Z,39.38
2023-03-01T09:32:49.988Z,33.67
2023-03-01T09:35:21.055Z,31.65
2023-03-01T09:37:50.765Z,30.70
2023-03-01T09:40:22.333Z,35.38
2023-03-01T09:42:55.930Z,34.50
2023-03-01T09:45:30.089Z,39.40
2023-03-01T09:47:58.855Z,37.90
2023-03-01T09:50:33.698Z,34.65
2023-03-01T09:53:04.644Z,40.63
2023-03-01T09:55:38.923Z,43.38
2023-03-01T09:58:31.283Z,31.63
2023-03-01T10:01:04.400Z,34.67
2023-03-01T10:03:41.371Z,32.00
2023-03-01T10:06:32.161Z,32.47
2023-03-01T10:09:05.820Z,32.40
2023-03-01T10:11:37.862Z,31.70
2023-03-01T10:14:15.926Z,31.83
2023-03-01T10:16:50.269Z,37.85
2023-03-01T10:19:25.349Z,36.00
2023-03-01T10:21:55.590Z,31.45
2023-03-01T10:24:23.480Z,31.95
2023-03-01T10:26:58.122Z,32.42
2023-03-01T10:29:32.841Z,33.20
2023-03-01T10:32:01.298Z,37.13
2023-03-01T10:34:31.304Z,31.75
2023-03-01T10:37:10.756Z,35.22
2023-03-01T10:39:38.820Z,31.52
2023-03-01T10:42:10.216Z,32.65
2023-03-01T10:44:44.897Z,28.00
2023-03-01T10:47:22.627Z,31.17
2023-03-01T10:49:55.931Z,45.47
2023-03-01T10:52:27.347Z,30.33
2023-03-01T10:54:58.239Z,35.00
2023-03-01T10:57:33.487Z,35.30
2023-03-01T11:00:24.569Z,34.53
2023-03-01T11:03:04.920Z,34.67
2023-03-01T11:05:34.562Z,32.28
2023-03-01T11:08:05.555Z,31.77
2023-03-01T11:10:35.405Z,32.13
2023-03-01T11:13:15.200Z,30.42
2023-03-01T11:15:43.607Z,31.08
2023-03-01T11:18:26.565Z,34.70
2023-03-01T11:21:01.571Z,31.75
2023-03-01T11:23:33.278Z,31.85
2023-03-01T11:26:04.630Z,34.05
2023-03-01T11:28:38.425Z,32.30
2023-03-01T11:31:09.812Z,33.17
2023-03-01T11:33:45.341Z,33.03
2023-03-01T11:36:21.870Z,30.17
2023-03-01T11:38:52.118Z,31.83
2023-03-01T11:41:23.444Z,30.50
2023-03-01T11:43:54.740Z,35.58
2023-03-01T11:46:56.119Z,35.80
2023-03-01T11:49:46.975Z,31.20
2023-03-01T11:52:24.460Z,43.90
2023-03-01T11:55:07.121Z,33.08
2023-03-01T11:57:48.952Z,30.02
2023-03-01T12:00:28.566Z,30.27
2023-03-01T12:03:13.073Z,31.00
2023-03-01T12:06:07.260Z,28.85
2023-03-01T12:08:39.845Z,35.17
2023-03-01T12:11:24.016Z,32.00
2023-03-01T12:14:25.382Z,36.30
2023-03-01T12:17:06.431Z,33.60
2023-03-01T12:19:45.148Z,37.42
2023-03-01T12:22:26.066Z,30.30
2023-03-01T12:25:18.666Z,28.50
2023-03-01T12:28:09.888Z,36.35
2023-03-01T12:31:03.772Z,29.60
2023-03-01T12:33:43.310Z,35.17
2023-03-01T12:36:41.323Z,28.23
2023-03-01T12:39:24.339Z,40.05
2023-03-01T12:42:00.715Z,30.10
2023-03-01T12:44:58.183Z,32.80
2023-03-01T12:47:45.895Z,31.52
2023-03-01T12:50:21.023Z,26.05
2023-03-01T12:52:54.093Z,30.52
2023-03-01T12:55:30.342Z,29.55
2023-03-01T12:58:10.650Z,28.60
2023-03-01T13:00:47.884Z,36.17
2023-03-01T13:03:25.499Z,35.05
2023-03-01T13:06:06.793Z,33.67
2023-03-01T13:08:41.231Z,36.53
2023-03-01T13:11:18.017Z,27.83
2023-03-01T13:13:47.429Z,41.92
2023-03-01T13:16:43.887Z,28.10
2023-03-01T13:19:16.018Z,37.87
2023-03-01T13:21:46.089Z,33.97
2023-03-01T13:24:29.930Z,30.27
2023-03-01T13:27:30.063Z,27.40
2023-03-01T13:30:00.775Z,26.02
2023-03-01T13:32:48.434Z,33.28
2023-03-01T13:35:44.425Z,26.00
2023-03-01T13:38:46.796Z,34.60
2023-03-01T13:41:15.831Z,25.43
2023-03-01T13:43:45.312Z,25.52
2023-03-01T13:46:20.080Z,26.60
2023-03-01T13:48:52.794Z,30.95
2023-03-01T13:51:25.759Z,22.80
2023-03-01T13:53:54.855Z,32.13
2023-03-01T13:56:26.824Z,25.07
2023-03-01T13:58:56.576Z,33.35
2023-03-01T14:01:28.295Z,25.03
2023-03-01T14:03:58.152Z,24.73
2023-03-01T14:06:28.353Z,26.43
2023-03-01T14:09:07.102Z,26.67
2023-03-01T14:12:01.646Z,31.25
2023-03-01T14:14:40.493Z,25.00
2023-03-01T14:17:35.902Z,23.70
2023-03-01T14:20:13.355Z,28.47
2023-03-01T14:22:43.920Z,25.23
2023-03-01T14:25:27.763Z,30.10
2023-03-01T14:28:00.361Z,25.10
2023-03-01T14:30:33.613Z,25.30
2023-03-01T14:33:03.006Z,26.77
2023-03-01T14:35:34.792Z,21.57
2023-03-01T14:38:03.240Z,25.93
2023-03-01T14:40:33.722Z,24.70
2023-03-01T14:43:03.941Z,27.25
2023-03-01T14:45:32.949Z,24.88
2023-03-01T14:48:02.956Z,24.33
2023-03-01T14:50:34.987Z,26.27
2023-03-01T14:53:05.692Z,22.30
2023-03-01T14:55:37.776Z,23.43
2023-03-01T14:58:06.772Z,25.83
2023-03-01T15:00:36.462Z,26.10
2023-03-01T15:03:10.804Z,27.73
2023-03-01T15:05:42.355Z,23.17
2023-03-01T15:08:19.949Z,25.80
2023-03-01T15:11:00.156Z,27.00
2023-03-01T15:13:32.179Z,28.80
2023-03-01T15:16:07.654Z,26.27
2023-03-01T15:18:37.456Z,29.13
2023-03-01T15:21:18.603Z,19.97
2023-03-01T15:23:53.305Z,22.93
2023-03-01T15:26:28.034Z,26.70
2023-03-01T15:29:00.079Z,27.15
2023-03-01T15:31:30.798Z,27.37
2023-03-01T15:34:22.013Z,22.07
2023-03-01T15:36:52.469Z,24.53
2023-03-01T15:39:44.104Z,24.77
2023-03-01T15:42:14.425Z,25.80
2023-03-01T15:44:45.773Z,30.97
2023-03-01T15:47:27.371Z,29.63
2023-03-01T15:49:56.915Z,24.70
2023-03-01T15:52:30.141Z,22.23
2023-03-01T15:55:01.516Z,24.20
2023-03-01T15:57:29.772Z,24.17
2023-03-01T15:59:57.874Z,25.60
2023-03-01T16:02:26.644Z,28.90
2023-03-01T16:04:57.306Z,28.23
2023-03-01T16:07:40.660Z,28.10
2023-03-01T16:10:11.645Z,20.93
2023-03-01T16:12:40.118Z,26.95
2023-03-01T16:15:17.303Z,23.40
2023-03-01T16:17:45.400Z,26.73
2023-03-01T16:20:28.675Z,29.50
2023-03-01T16:23:00.966Z,21.70
2023-03-01T16:25:29.377Z,23.90
2023-03-01T16:27:59.389Z,22.00
2023-03-01T16:30:27.664Z,37.50
2023-03-01T16:32:55.701Z,29.55
2023-03-01T16:35:27.903Z,29.40
2023-03-01T16:37:55.827Z,26.50
2023-03-01T16:40:27.735Z,31.47
2023-03-01T16:43:00.282Z,24.40
2023-03-01T16:45:29.211Z,28.02
2023-03-01T16:47:58.362Z,26.37
2023-03-01T16:50:26.609Z,29.27
2023-03-01T16:52:54.544Z,27.20
2023-03-01T16:55:22.496Z,39.97
2023-03-01T16:57:52.097Z,25.88
2023-03-01T17:00:20.788Z,23.90
2023-03-01T17:02:49.173Z,23.55
2023-03-01T17:05:17.451Z,25.58
2023-03-01T17:07:45.485Z,27.60
2023-03-01T17:10:17.659Z,22.90
2023-03-01T17:12:51.660Z,24.67
2023-03-01T17:15:23.851Z,40.28
2023-03-01T17:17:52.892Z,24.33
2023-03-01T17:20:21.312Z,26.05
2023-03-01T17:22:52.652Z,29.05
2023-03-01T17:25:20.680Z,28.67
2023-03-01T17:27:48.546Z,29.33
2023-03-01T17:30:18.576Z,33.08
2023-03-01T17:32:47.029Z,44.70
2023-03-01T17:35:14.992Z,29.65
2023-03-01T17:37:46.407Z,36.85
2023-03-01T17:40:14.694Z,35.63
2023-03-01T17:42:42.792Z,37.45
2023-03-01T17:45:11.457Z,26.20
2023-03-01T17:47:42.788Z,33.38
2023-03-01T17:50:12.338Z,28.33
2023-03-01T17:52:41.279Z,27.33
2023-03-01T17:55:10.541Z,29.52
2023-03-01T17:57:40.645Z,27.63
2023-03-01T18:00:11.468Z,28.33
2023-03-01T18:02:39.892Z,28.27
2023-03-01T18:05:10.635Z,29.08
2023-03-01T18:07:39.183Z,27.65
2023-03-01T18:10:07.856Z,34.70
2023-03-01T18:12:38.102Z,27.58
2023-03-01T18:15:06.701Z,29.42
2023-03-01T18:17:36.633Z,29.23
2023-03-01T18:20:05.717Z,27.40
2023-03-01T18:22:35.058Z,30.25
2023-03-01T18:25:02.945Z,27.50
2023-03-01T18:27:31.012Z,27.55
2023-03-01T18:29:59.097Z,29.45
2023-03-01T18:32:27.706Z,32.05
2023-03-01T18:34:56.007Z,29.50
2023-03-01T18:37:29.644Z,29.55
2023-03-01T18:40:03.094Z,29.15
2023-03-01T18:42:30.955Z,31.33
2023-03-01T18:44:59.232Z,32.28
2023-03-01T18:47:27.089Z,31.35
2023-03-01T18:49:55.000Z,30.00
2023-03-01T18:52:22.859Z,38.30
2023-03-01T18:54:50.932Z,29.98
2023-03-01T18:57:20.301Z,31.25
2023-03-01T18:59:49.303Z,33.65
2023-03-01T19:02:17.157Z,35.25
2023-03-01T19:04:45.066Z,35.03
2023-03-01T19:07:13.496Z,30.27
2023-03-01T19:09:41.643Z,31.85
2023-03-01T19:12:09.572Z,39.00
2023-03-01T19:14:38.893Z,30.73
2023-03-01T19:17:08.850Z,36.80
2023-03-01T19:19:36.718Z,36.95
2023-03-01T19:22:06.434Z,38.50
2023-03-01T19:24:34.487Z,55.83
2023-03-01T19:27:02.416Z,48.88
2023-03-01T19:29:30.363Z,47.15
2023-03-01T19:31:59.592Z,38.60
2023-03-01T19:34:27.489Z,37.80
2023-03-01T19:36:55.357Z,39.90
2023-03-01T19:39:29.176Z,43.40
2023-03-01T19:41:57.680Z,40.75
2023-03-01T19:44:25.577Z,33.33
2023-03-01T19:46:54.242Z,36.63
2023-03-01T19:49:23.474Z,38.05
2023-03-01T19:51:53.585Z,36.20
2023-03-01T19:54:21.955Z,31.80
2023-03-01T19:56:51.340Z,38.53
2023-03-01T19:59:24.186Z,38.13
2023-03-01T20:01:52.706Z,36.30
2023-03-01T20:04:20.598Z,33.85
2023-03-01T20:06:50.741Z,31.38
2023-03-01T20:09:24.804Z,38.33
2023-03-01T20:11:52.811Z,36.58
2023-03-01T20:14:23.854Z,41.25
2023-03-01T20:16:52.258Z,39.08
2023-03-01T20:19:20.821Z,34.40
2023-03-01T20:21:50.417Z,40.00
2023-03-01T20:24:18.246Z,40.63
2023-03-01T20:26:46.104Z,42.70
2023-03-01T20:29:14.108Z,37.95
2023-03-01T20:31:42.622Z,47.75
2023-03-01T20:34:10.755Z,41.47
2023-03-01T20:36:40.873Z,45.13
2023-03-01T20:39:11.734Z,40.63
2023-03-01T20:41:39.711Z,43.45
2023-03-01T20:44:07.728Z,38.60
2023-03-01T20:46:36.808Z,38.90
2023-03-01T20:49:07.269Z,35.25
2023-03-01T20:51:35.483Z,36.70
2023-03-01T20:54:03.780Z,33.95
2023-03-01T20:56:33.484Z,38.83
2023-03-01T20:59:05.525Z,40.20
2023-03-01T21:01:34.854Z,38.72
2023-03-01T21:04:03.080Z,43.38
2023-03-01T21:06:32.384Z,46.15
2023-03-01T21:09:00.445Z,63.33
2023-03-01T21:11:28.745Z,55.08
2023-03-01T21:13:58.295Z,65.50
2023-03-01T21:16:26.444Z,58.55
2023-03-01T21:18:54.701Z,57.22
2023-03-01T21:21:24.969Z,51.17
2023-03-01T21:23:52.918Z,46.65
2023-03-01T21:26:22.952Z,37.85
2023-03-01T21:28:55.457Z,42.50
2023-03-01T21:31:28.456Z,39.42
2023-03-01T21:33:59.060Z,35.83
2023-03-01T21:36:29.028Z,41.20
2023-03-01T21:38:59.226Z,33.72
2023-03-01T21:41:29.950Z,36.58
2023-03-01T21:44:00.583Z,38.65
2023-03-01T21:46:32.776Z,37.10
2023-03-01T21:49:02.455Z,38.53
2023-03-01T21:51:32.942Z,34.40
2023-03-01T21:54:03.312Z,43.30
2023-03-01T21:56:34.525Z,36.00
2023-03-01T21:59:02.797Z,38.38
2023-03-01T22:01:32.384Z,36.80
2023-03-01T22:04:03.305Z,40.35
2023-03-01T22:06:35.083Z,47.50
2023-03-01T22:09:06.873Z,39.97
2023-03-01T22:11:36.255Z,44.85
2023-03-01T22:14:04.915Z,42.17
2023-03-01T22:16:36.330Z,39.65
2023-03-01T22:19:05.526Z,40.75
2023-03-01T22:21:39.175Z,38.25
2023-03-01T22:24:08.647Z,38.67
2023-03-01T22:26:38.938Z,42.10
2023-03-01T22:29:08.534Z,38.72
2023-03-01T22:31:38.488Z,31.75
2023-03-01T22:34:08.524Z,39.30
2023-03-01T22:36:39.148Z,42.50
2023-03-01T22:39:07.464Z,43.60
2023-03-01T22:41:37.493Z,41.72
2023-03-01T22:44:11.913Z,40.70
2023-03-01T22:46:41.591Z,38.83
2023-03-01T22:49:10.940Z,39.38
2023-03-01T22:51:42.494Z,43.78
2023-03-01T22:54:11.775Z,39.22
2023-03-01T22:56:40.448Z,41.65
2023-03-01T22:59:12.031Z,42.00
2023-03-01T23:01:46.432Z,43.08
2023-03-01T23:04:15.384Z,40.83
2023-03-01T23:06:51.746Z,40.17
2023-03-01T23:09:22.501Z,41.33
2023-03-01T23:11:51.357Z,40.88
2023-03-01T23:14:20.677Z,43.47
2023-03-01T23:16:50.527Z,53.78
2023-03-01T23:19:18.720Z,52.35
2023-03-01T23:21:50.041Z,50.03
2023-03-01T23:24:20.101Z,44.80
2023-03-01T23:26:53.190Z,44.65
2023-03-01T23:29:21.426Z,45.95
2023-03-01T23:31:50.731Z,43.97
2023-03-01T23:34:19.204Z,37.85
2023-03-01T23:36:47.104Z,39.25
2023-03-01T23:39:15.990Z,37.13
2023-03-01T23:41:44.167Z,40.83
2023-03-01T23:44:16.660Z,40.17
2023-03-01T23:46:45.776Z,37.03
2023-03-01T23:49:16.542Z,38.13
2023-03-01T23:51:47.621Z,37.28
2023-03-01T23:54:17.427Z,39.55
2023-03-01T23:56:47.526Z,43.40
2023-03-01T23:59:17.518Z,42.83
